sensor_id;sensor_type;location;lat;lon;timestamp;P1;durP1;ratioP1;P2;durP2;ratioP2
22924;SDS011;11628;51.072;3.712;2023-02-26T00:01:16;10.32;;;5.40;;
22924;SDS011;11628;51.072;3.712;2023-02-26T00:03:49;14.63;;;5.20;;
22924;SDS011;11628;51.072;3.712;2023-02-26T00:06:16;12.13;;;3.50;;
22924;SDS011;11628;51.072;3.712;2023-02-26T00:08:43;13.90;;;3.75;;
22924;SDS011;11628;51.072;3.712;2023-02-26T00:11:09;10.38;;;3.15;;
22924;SDS011;11628;51.072;3.712;2023-02-26T00:13:37;6.95;;;3.13;;
22924;SDS011;11628;51.072;3.712;2023-02-26T00:16:26;14.00;;;3.50;;
22924;SDS011;11628;51.072;3.712;2023-02-26T00:19:03;12.80;;;3.47;;
22924;SDS011;11628;51.072;3.712;2023-02-26T00:21:31;9.13;;;3.67;;
22924;SDS011;11628;51.072;3.712;2023-02-26T00:23:58;10.50;;;3.13;;
22924;SDS011;11628;51.072;3.712;2023-02-26T00:26:26;8.45;;;2.63;;
22924;SDS011;11628;51.072;3.712;2023-02-26T00:28:53;8.68;;;3.15;;
22924;SDS011;11628;51.072;3.712;2023-02-26T00:31:20;8.93;;;3.35;;
22924;SDS011;11628;51.072;3.712;2023-02-26T00:33:49;9.15;;;2.70;;
22924;SDS011;11628;51.072;3.712;2023-02-26T00:36:41;13.45;;;3.20;;
22924;SDS011;11628;51.072;3.712;2023-02-26T00:39:23;12.93;;;3.15;;
22924;SDS011;11628;51.072;3.712;2023-02-26T00:42:13;8.82;;;2.80;;
22924;SDS011;11628;51.072;3.712;2023-02-26T00:44:39;16.17;;;2.90;;
22924;SDS011;11628;51.072;3.712;2023-02-26T00:47:08;11.55;;;3.78;;
22924;SDS011;11628;51.072;3.712;2023-02-26T00:52:09;11.43;;;2.70;;
22924;SDS011;11628;51.072;3.712;2023-02-26T00:54:40;8.93;;;2.83;;
22924;SDS011;11628;51.072;3.712;2023-02-26T00:57:06;9.93;;;2.53;;
22924;SDS011;11628;51.072;3.712;2023-02-26T00:59:33;11.77;;;2.50;;
22924;SDS011;11628;51.072;3.712;2023-02-26T01:01:59;11.95;;;2.63;;
22924;SDS011;11628;51.072;3.712;2023-02-26T01:04:25;13.75;;;3.15;;
22924;SDS011;11628;51.072;3.712;2023-02-26T01:06:54;10.35;;;2.50;;
22924;SDS011;11628;51.072;3.712;2023-02-26T01:11:53;11.23;;;2.55;;
22924;SDS011;11628;51.072;3.712;2023-02-26T01:14:21;8.45;;;2.15;;
22924;SDS011;11628;51.072;3.712;2023-02-26T01:16:49;9.32;;;2.13;;
22924;SDS011;11628;51.072;3.712;2023-02-26T01:22:20;8.23;;;2.53;;
22924;SDS011;11628;51.072;3.712;2023-02-26T01:25:04;13.43;;;2.45;;
22924;SDS011;11628;51.072;3.712;2023-02-26T01:27:51;8.57;;;2.42;;
22924;SDS011;11628;51.072;3.712;2023-02-26T01:30:18;7.05;;;2.65;;
22924;SDS011;11628;51.072;3.712;2023-02-26T01:38:26;11.70;;;2.60;;
22924;SDS011;11628;51.072;3.712;2023-02-26T01:43:58;7.57;;;2.20;;
22924;SDS011;11628;51.072;3.712;2023-02-26T01:49:39;7.40;;;2.22;;
22924;SDS011;11628;51.072;3.712;2023-02-26T01:52:06;5.25;;;1.80;;
22924;SDS011;11628;51.072;3.712;2023-02-26T01:55:10;9.65;;;2.08;;
22924;SDS011;11628;51.072;3.712;2023-02-26T01:57:37;11.85;;;2.63;;
22924;SDS011;11628;51.072;3.712;2023-02-26T02:00:03;8.23;;;2.10;;
22924;SDS011;11628;51.072;3.712;2023-02-26T02:02:30;11.48;;;2.15;;
22924;SDS011;11628;51.072;3.712;2023-02-26T02:04:57;9.02;;;1.90;;
22924;SDS011;11628;51.072;3.712;2023-02-26T02:07:29;11.13;;;2.20;;
22924;SDS011;11628;51.072;3.712;2023-02-26T02:09:55;7.32;;;1.92;;
22924;SDS011;11628;51.072;3.712;2023-02-26T02:15:00;5.75;;;2.30;;
22924;SDS011;11628;51.072;3.712;2023-02-26T02:17:47;8.77;;;2.00;;
22924;SDS011;11628;51.072;3.712;2023-02-26T02:23:21;5.70;;;1.80;;
22924;SDS011;11628;51.072;3.712;2023-02-26T02:30:11;11.43;;;2.35;;
22924;SDS011;11628;51.072;3.712;2023-02-26T02:32:07;6.10;;;1.75;;
22924;SDS011;11628;51.072;3.712;2023-02-26T02:34:37;6.93;;;1.98;;
22924;SDS011;11628;51.072;3.712;2023-02-26T02:37:13;4.53;;;2.00;;
22924;SDS011;11628;51.072;3.712;2023-02-26T02:39:50;7.60;;;2.15;;
22924;SDS011;11628;51.072;3.712;2023-02-26T02:42:25;6.82;;;1.83;;
22924;SDS011;11628;51.072;3.712;2023-02-26T02:45:00;5.28;;;1.67;;
22924;SDS011;11628;51.072;3.712;2023-02-26T02:48:04;10.43;;;1.80;;
22924;SDS011;11628;51.072;3.712;2023-02-26T02:51:16;10.63;;;2.15;;
22924;SDS011;11628;51.072;3.712;2023-02-26T02:53:50;6.03;;;2.03;;
22924;SDS011;11628;51.072;3.712;2023-02-26T02:58:59;9.38;;;2.20;;
22924;SDS011;11628;51.072;3.712;2023-02-26T03:01:35;8.93;;;2.35;;
22924;SDS011;11628;51.072;3.712;2023-02-26T03:06:31;13.02;;;3.10;;
22924;SDS011;11628;51.072;3.712;2023-02-26T03:08:59;9.90;;;3.10;;
22924;SDS011;11628;51.072;3.712;2023-02-26T03:11:25;9.48;;;2.80;;
22924;SDS011;11628;51.072;3.712;2023-02-26T03:13:52;10.18;;;2.20;;
22924;SDS011;11628;51.072;3.712;2023-02-26T03:22:26;5.10;;;2.25;;
22924;SDS011;11628;51.072;3.712;2023-02-26T03:30:31;5.68;;;0.95;;
22924;SDS011;11628;51.072;3.712;2023-02-26T03:33:05;8.90;;;0.98;;
22924;SDS011;11628;51.072;3.712;2023-02-26T03:38:32;7.18;;;1.00;;
22924;SDS011;11628;51.072;3.712;2023-02-26T03:41:12;7.32;;;1.30;;
22924;SDS011;11628;51.072;3.712;2023-02-26T03:44:00;8.43;;;1.42;;
22924;SDS011;11628;51.072;3.712;2023-02-26T03:46:34;6.90;;;1.58;;
22924;SDS011;11628;51.072;3.712;2023-02-26T03:49:08;5.18;;;1.42;;
22924;SDS011;11628;51.072;3.712;2023-02-26T03:51:39;4.22;;;1.00;;
22924;SDS011;11628;51.072;3.712;2023-02-26T03:56:46;4.95;;;1.13;;
22924;SDS011;11628;51.072;3.712;2023-02-26T03:59:13;4.50;;;1.10;;
22924;SDS011;11628;51.072;3.712;2023-02-26T04:01:45;4.57;;;1.27;;
22924;SDS011;11628;51.072;3.712;2023-02-26T04:04:21;7.82;;;1.38;;
22924;SDS011;11628;51.072;3.712;2023-02-26T04:06:59;6.25;;;1.48;;
22924;SDS011;11628;51.072;3.712;2023-02-26T04:09:25;6.28;;;1.35;;
22924;SDS011;11628;51.072;3.712;2023-02-26T04:11:52;5.05;;;1.13;;
22924;SDS011;11628;51.072;3.712;2023-02-26T04:14:19;3.95;;;0.82;;
22924;SDS011;11628;51.072;3.712;2023-02-26T04:16:45;7.53;;;1.30;;
22924;SDS011;11628;51.072;3.712;2023-02-26T04:19:10;5.18;;;0.80;;
22924;SDS011;11628;51.072;3.712;2023-02-26T04:21:37;6.80;;;0.98;;
22924;SDS011;11628;51.072;3.712;2023-02-26T04:24:03;6.90;;;1.10;;
22924;SDS011;11628;51.072;3.712;2023-02-26T04:26:29;7.95;;;1.90;;
22924;SDS011;11628;51.072;3.712;2023-02-26T04:28:54;7.15;;;0.98;;
22924;SDS011;11628;51.072;3.712;2023-02-26T04:31:21;4.22;;;0.90;;
22924;SDS011;11628;51.072;3.712;2023-02-26T04:33:46;8.50;;;1.10;;
22924;SDS011;11628;51.072;3.712;2023-02-26T04:36:12;7.25;;;1.67;;
22924;SDS011;11628;51.072;3.712;2023-02-26T04:38:39;4.63;;;0.82;;
22924;SDS011;11628;51.072;3.712;2023-02-26T04:41:05;6.15;;;1.00;;
22924;SDS011;11628;51.072;3.712;2023-02-26T04:43:32;4.72;;;1.15;;
22924;SDS011;11628;51.072;3.712;2023-02-26T04:45:58;3.83;;;1.05;;
22924;SDS011;11628;51.072;3.712;2023-02-26T04:48:24;6.72;;;1.10;;
22924;SDS011;11628;51.072;3.712;2023-02-26T04:50:50;6.20;;;0.88;;
22924;SDS011;11628;51.072;3.712;2023-02-26T04:53:17;4.68;;;0.90;;
22924;SDS011;11628;51.072;3.712;2023-02-26T04:55:43;5.43;;;1.23;;
22924;SDS011;11628;51.072;3.712;2023-02-26T04:58:11;6.63;;;1.23;;
22924;SDS011;11628;51.072;3.712;2023-02-26T05:00:38;7.40;;;0.93;;
22924;SDS011;11628;51.072;3.712;2023-02-26T05:03:04;5.47;;;1.10;;
22924;SDS011;11628;51.072;3.712;2023-02-26T05:05:30;6.93;;;1.25;;
22924;SDS011;11628;51.072;3.712;2023-02-26T05:07:56;5.82;;;1.27;;
22924;SDS011;11628;51.072;3.712;2023-02-26T05:10:23;5.47;;;1.00;;
22924;SDS011;11628;51.072;3.712;2023-02-26T05:12:49;5.13;;;0.90;;
22924;SDS011;11628;51.072;3.712;2023-02-26T05:15:15;4.82;;;1.08;;
22924;SDS011;11628;51.072;3.712;2023-02-26T05:17:41;3.88;;;0.80;;
22924;SDS011;11628;51.072;3.712;2023-02-26T05:20:07;3.63;;;0.80;;
22924;SDS011;11628;51.072;3.712;2023-02-26T05:22:37;4.60;;;0.95;;
22924;SDS011;11628;51.072;3.712;2023-02-26T05:25:04;6.22;;;0.88;;
22924;SDS011;11628;51.072;3.712;2023-02-26T05:27:31;7.38;;;1.30;;
22924;SDS011;11628;51.072;3.712;2023-02-26T05:29:57;4.20;;;0.80;;
22924;SDS011;11628;51.072;3.712;2023-02-26T05:32:22;6.38;;;1.00;;
22924;SDS011;11628;51.072;3.712;2023-02-26T05:34:49;4.35;;;1.10;;
22924;SDS011;11628;51.072;3.712;2023-02-26T05:37:14;6.03;;;0.98;;
22924;SDS011;11628;51.072;3.712;2023-02-26T05:39:40;4.05;;;1.00;;
22924;SDS011;11628;51.072;3.712;2023-02-26T05:42:07;7.20;;;1.00;;
22924;SDS011;11628;51.072;3.712;2023-02-26T05:44:33;5.80;;;1.15;;
22924;SDS011;11628;51.072;3.712;2023-02-26T05:46:59;6.10;;;1.40;;
22924;SDS011;11628;51.072;3.712;2023-02-26T05:49:26;6.50;;;0.85;;
22924;SDS011;11628;51.072;3.712;2023-02-26T05:51:52;6.00;;;1.10;;
22924;SDS011;11628;51.072;3.712;2023-02-26T05:54:18;5.20;;;0.80;;
22924;SDS011;11628;51.072;3.712;2023-02-26T05:56:43;4.03;;;0.95;;
22924;SDS011;11628;51.072;3.712;2023-02-26T05:59:10;8.20;;;1.33;;
22924;SDS011;11628;51.072;3.712;2023-02-26T06:01:36;5.15;;;1.00;;
22924;SDS011;11628;51.072;3.712;2023-02-26T06:04:03;4.32;;;1.02;;
22924;SDS011;11628;51.072;3.712;2023-02-26T06:06:29;4.55;;;1.00;;
22924;SDS011;11628;51.072;3.712;2023-02-26T06:08:55;4.82;;;1.23;;
22924;SDS011;11628;51.072;3.712;2023-02-26T06:11:22;5.05;;;1.70;;
22924;SDS011;11628;51.072;3.712;2023-02-26T06:13:48;6.18;;;1.00;;
22924;SDS011;11628;51.072;3.712;2023-02-26T06:16:14;5.75;;;1.55;;
22924;SDS011;11628;51.072;3.712;2023-02-26T06:18:39;4.80;;;0.90;;
22924;SDS011;11628;51.072;3.712;2023-02-26T06:21:05;5.72;;;0.85;;
22924;SDS011;11628;51.072;3.712;2023-02-26T06:23:31;4.15;;;0.80;;
22924;SDS011;11628;51.072;3.712;2023-02-26T06:25:57;7.78;;;1.05;;
22924;SDS011;11628;51.072;3.712;2023-02-26T06:28:24;4.75;;;0.88;;
22924;SDS011;11628;51.072;3.712;2023-02-26T06:30:51;3.03;;;1.13;;
22924;SDS011;11628;51.072;3.712;2023-02-26T06:33:17;3.65;;;0.98;;
22924;SDS011;11628;51.072;3.712;2023-02-26T06:35:44;2.28;;;0.68;;
22924;SDS011;11628;51.072;3.712;2023-02-26T06:38:10;4.68;;;0.98;;
22924;SDS011;11628;51.072;3.712;2023-02-26T06:40:36;3.80;;;1.20;;
22924;SDS011;11628;51.072;3.712;2023-02-26T06:43:02;4.43;;;0.88;;
22924;SDS011;11628;51.072;3.712;2023-02-26T06:45:28;5.30;;;1.45;;
22924;SDS011;11628;51.072;3.712;2023-02-26T06:47:54;3.30;;;0.85;;
22924;SDS011;11628;51.072;3.712;2023-02-26T06:50:20;6.95;;;1.05;;
22924;SDS011;11628;51.072;3.712;2023-02-26T06:52:47;3.88;;;0.80;;
22924;SDS011;11628;51.072;3.712;2023-02-26T06:55:12;6.43;;;1.02;;
22924;SDS011;11628;51.072;3.712;2023-02-26T06:57:38;3.97;;;0.75;;
22924;SDS011;11628;51.072;3.712;2023-02-26T07:00:05;5.47;;;1.10;;
22924;SDS011;11628;51.072;3.712;2023-02-26T07:02:31;5.95;;;0.88;;
22924;SDS011;11628;51.072;3.712;2023-02-26T07:04:57;3.95;;;1.00;;
22924;SDS011;11628;51.072;3.712;2023-02-26T07:07:24;6.40;;;1.00;;
22924;SDS011;11628;51.072;3.712;2023-02-26T07:09:50;5.35;;;0.93;;
22924;SDS011;11628;51.072;3.712;2023-02-26T07:12:15;4.82;;;1.58;;
22924;SDS011;11628;51.072;3.712;2023-02-26T07:14:42;4.22;;;0.88;;
22924;SDS011;11628;51.072;3.712;2023-02-26T07:17:09;3.67;;;0.90;;
22924;SDS011;11628;51.072;3.712;2023-02-26T07:19:44;5.00;;;1.00;;
22924;SDS011;11628;51.072;3.712;2023-02-26T07:22:10;2.78;;;1.20;;
22924;SDS011;11628;51.072;3.712;2023-02-26T07:24:37;5.60;;;0.82;;
22924;SDS011;11628;51.072;3.712;2023-02-26T07:27:03;3.05;;;0.93;;
22924;SDS011;11628;51.072;3.712;2023-02-26T07:29:29;4.22;;;0.98;;
22924;SDS011;11628;51.072;3.712;2023-02-26T07:31:55;6.60;;;1.52;;
22924;SDS011;11628;51.072;3.712;2023-02-26T07:34:20;4.13;;;0.90;;
22924;SDS011;11628;51.072;3.712;2023-02-26T07:36:47;5.10;;;1.38;;
22924;SDS011;11628;51.072;3.712;2023-02-26T07:39:13;6.70;;;1.20;;
22924;SDS011;11628;51.072;3.712;2023-02-26T07:41:39;4.53;;;0.90;;
22924;SDS011;11628;51.072;3.712;2023-02-26T07:44:05;6.25;;;0.95;;
22924;SDS011;11628;51.072;3.712;2023-02-26T07:46:31;6.53;;;1.00;;
22924;SDS011;11628;51.072;3.712;2023-02-26T07:48:57;5.75;;;0.80;;
22924;SDS011;11628;51.072;3.712;2023-02-26T07:51:22;3.00;;;0.98;;
22924;SDS011;11628;51.072;3.712;2023-02-26T07:53:48;4.28;;;0.90;;
22924;SDS011;11628;51.072;3.712;2023-02-26T07:56:14;6.35;;;0.90;;
22924;SDS011;11628;51.072;3.712;2023-02-26T07:58:39;5.97;;;1.00;;
22924;SDS011;11628;51.072;3.712;2023-02-26T08:01:05;5.05;;;1.27;;
22924;SDS011;11628;51.072;3.712;2023-02-26T08:03:31;2.67;;;0.80;;
22924;SDS011;11628;51.072;3.712;2023-02-26T08:05:57;4.30;;;0.93;;
22924;SDS011;11628;51.072;3.712;2023-02-26T08:08:27;4.68;;;0.80;;
22924;SDS011;11628;51.072;3.712;2023-02-26T08:10:53;5.93;;;1.27;;
22924;SDS011;11628;51.072;3.712;2023-02-26T08:13:20;4.07;;;1.15;;
22924;SDS011;11628;51.072;3.712;2023-02-26T08:15:46;5.22;;;0.90;;
22924;SDS011;11628;51.072;3.712;2023-02-26T08:18:12;2.45;;;0.80;;
22924;SDS011;11628;51.072;3.712;2023-02-26T08:20:38;3.75;;;0.80;;
22924;SDS011;11628;51.072;3.712;2023-02-26T08:23:04;7.15;;;2.97;;
22924;SDS011;11628;51.072;3.712;2023-02-26T08:25:29;3.53;;;1.05;;
22924;SDS011;11628;51.072;3.712;2023-02-26T08:27:55;5.30;;;1.60;;
22924;SDS011;11628;51.072;3.712;2023-02-26T08:30:22;3.88;;;0.93;;
22924;SDS011;11628;51.072;3.712;2023-02-26T08:32:49;4.32;;;1.20;;
22924;SDS011;11628;51.072;3.712;2023-02-26T08:35:14;3.28;;;1.00;;
22924;SDS011;11628;51.072;3.712;2023-02-26T08:37:41;6.75;;;1.63;;
22924;SDS011;11628;51.072;3.712;2023-02-26T08:40:09;7.75;;;1.58;;
22924;SDS011;11628;51.072;3.712;2023-02-26T08:42:36;3.15;;;1.02;;
22924;SDS011;11628;51.072;3.712;2023-02-26T08:45:02;3.88;;;1.20;;
22924;SDS011;11628;51.072;3.712;2023-02-26T08:47:29;5.38;;;0.90;;
22924;SDS011;11628;51.072;3.712;2023-02-26T08:49:55;2.45;;;1.00;;
22924;SDS011;11628;51.072;3.712;2023-02-26T08:52:21;6.28;;;1.30;;
22924;SDS011;11628;51.072;3.712;2023-02-26T08:54:47;3.58;;;1.00;;
22924;SDS011;11628;51.072;3.712;2023-02-26T08:57:13;4.88;;;1.00;;
22924;SDS011;11628;51.072;3.712;2023-02-26T08:59:39;3.47;;;0.90;;
22924;SDS011;11628;51.072;3.712;2023-02-26T09:02:05;5.18;;;1.02;;
22924;SDS011;11628;51.072;3.712;2023-02-26T09:04:31;5.20;;;1.45;;
22924;SDS011;11628;51.072;3.712;2023-02-26T09:06:57;3.33;;;1.25;;
22924;SDS011;11628;51.072;3.712;2023-02-26T09:09:23;2.92;;;0.95;;
22924;SDS011;11628;51.072;3.712;2023-02-26T09:11:49;4.57;;;0.98;;
22924;SDS011;11628;51.072;3.712;2023-02-26T09:14:15;2.88;;;1.45;;
22924;SDS011;11628;51.072;3.712;2023-02-26T09:16:41;5.70;;;2.25;;
22924;SDS011;11628;51.072;3.712;2023-02-26T09:19:07;3.55;;;0.85;;
22924;SDS011;11628;51.072;3.712;2023-02-26T09:21:32;2.75;;;0.88;;
22924;SDS011;11628;51.072;3.712;2023-02-26T09:23:59;4.22;;;1.17;;
22924;SDS011;11628;51.072;3.712;2023-02-26T09:26:25;3.80;;;1.10;;
22924;SDS011;11628;51.072;3.712;2023-02-26T09:28:51;3.97;;;1.20;;
22924;SDS011;11628;51.072;3.712;2023-02-26T09:31:17;3.85;;;0.75;;
22924;SDS011;11628;51.072;3.712;2023-02-26T09:33:43;4.88;;;0.90;;
22924;SDS011;11628;51.072;3.712;2023-02-26T09:36:08;1.90;;;0.60;;
22924;SDS011;11628;51.072;3.712;2023-02-26T09:38:34;4.45;;;1.08;;
22924;SDS011;11628;51.072;3.712;2023-02-26T09:41:02;4.57;;;0.90;;
22924;SDS011;11628;51.072;3.712;2023-02-26T09:49:12;1.48;;;0.63;;
22924;SDS011;11628;51.072;3.712;2023-02-26T09:51:44;2.83;;;0.70;;
22924;SDS011;11628;51.072;3.712;2023-02-26T09:54:17;1.58;;;0.90;;
22924;SDS011;11628;51.072;3.712;2023-02-26T09:56:50;3.75;;;0.80;;
22924;SDS011;11628;51.072;3.712;2023-02-26T09:59:18;4.32;;;1.00;;
22924;SDS011;11628;51.072;3.712;2023-02-26T10:04:34;4.07;;;1.00;;
22924;SDS011;11628;51.072;3.712;2023-02-26T10:07:15;4.68;;;0.98;;
22924;SDS011;11628;51.072;3.712;2023-02-26T10:10:08;5.40;;;1.65;;
22924;SDS011;11628;51.072;3.712;2023-02-26T10:12:54;2.72;;;0.80;;
22924;SDS011;11628;51.072;3.712;2023-02-26T10:15:22;2.20;;;1.00;;
22924;SDS011;11628;51.072;3.712;2023-02-26T10:20:43;2.28;;;0.80;;
22924;SDS011;11628;51.072;3.712;2023-02-26T10:25:45;3.42;;;0.80;;
22924;SDS011;11628;51.072;3.712;2023-02-26T10:28:31;2.63;;;0.60;;
22924;SDS011;11628;51.072;3.712;2023-02-26T10:31:04;2.45;;;0.63;;
22924;SDS011;11628;51.072;3.712;2023-02-26T10:33:44;3.63;;;0.60;;
22924;SDS011;11628;51.072;3.712;2023-02-26T10:36:44;2.55;;;0.75;;
22924;SDS011;11628;51.072;3.712;2023-02-26T10:39:31;3.65;;;0.80;;
22924;SDS011;11628;51.072;3.712;2023-02-26T10:42:22;1.75;;;0.60;;
22924;SDS011;11628;51.072;3.712;2023-02-26T10:47:45;3.75;;;0.90;;
22924;SDS011;11628;51.072;3.712;2023-02-26T10:50:22;2.92;;;0.77;;
22924;SDS011;11628;51.072;3.712;2023-02-26T10:52:49;1.85;;;0.95;;
22924;SDS011;11628;51.072;3.712;2023-02-26T10:58:33;3.08;;;0.77;;
22924;SDS011;11628;51.072;3.712;2023-02-26T11:00:45;2.63;;;0.90;;
22924;SDS011;11628;51.072;3.712;2023-02-26T11:03:20;4.10;;;1.00;;
22924;SDS011;11628;51.072;3.712;2023-02-26T11:05:49;3.80;;;0.70;;
22924;SDS011;11628;51.072;3.712;2023-02-26T11:08:18;2.50;;;0.90;;
22924;SDS011;11628;51.072;3.712;2023-02-26T11:10:51;2.42;;;0.70;;
22924;SDS011;11628;51.072;3.712;2023-02-26T11:13:28;3.45;;;1.20;;
22924;SDS011;11628;51.072;3.712;2023-02-26T11:16:05;7.55;;;1.20;;
22924;SDS011;11628;51.072;3.712;2023-02-26T11:21:07;3.35;;;0.90;;
22924;SDS011;11628;51.072;3.712;2023-02-26T11:23:40;3.83;;;0.90;;
22924;SDS011;11628;51.072;3.712;2023-02-26T11:26:15;1.88;;;0.60;;
22924;SDS011;11628;51.072;3.712;2023-02-26T11:28:47;4.20;;;0.82;;
22924;SDS011;11628;51.072;3.712;2023-02-26T11:31:16;1.80;;;0.50;;
22924;SDS011;11628;51.072;3.712;2023-02-26T11:33:49;3.08;;;0.70;;
22924;SDS011;11628;51.072;3.712;2023-02-26T11:36:20;1.50;;;0.60;;
22924;SDS011;11628;51.072;3.712;2023-02-26T11:38:57;7.35;;;2.53;;
22924;SDS011;11628;51.072;3.712;2023-02-26T11:41:29;2.70;;;0.70;;
22924;SDS011;11628;51.072;3.712;2023-02-26T11:46:26;4.57;;;0.85;;
22924;SDS011;11628;51.072;3.712;2023-02-26T11:48:54;3.65;;;0.93;;
22924;SDS011;11628;51.072;3.712;2023-02-26T11:51:23;2.38;;;0.70;;
22924;SDS011;11628;51.072;3.712;2023-02-26T11:53:52;1.95;;;0.70;;
22924;SDS011;11628;51.072;3.712;2023-02-26T11:56:30;2.58;;;0.80;;
22924;SDS011;11628;51.072;3.712;2023-02-26T11:59:06;1.38;;;0.80;;
22924;SDS011;11628;51.072;3.712;2023-02-26T12:01:44;2.95;;;1.00;;
22924;SDS011;11628;51.072;3.712;2023-02-26T12:04:11;3.00;;;0.80;;
22924;SDS011;11628;51.072;3.712;2023-02-26T12:06:39;1.05;;;0.60;;
22924;SDS011;11628;51.072;3.712;2023-02-26T12:09:12;4.93;;;0.85;;
22924;SDS011;11628;51.072;3.712;2023-02-26T12:20:21;2.33;;;1.10;;
22924;SDS011;11628;51.072;3.712;2023-02-26T12:23:14;3.35;;;1.00;;
22924;SDS011;11628;51.072;3.712;2023-02-26T12:40:03;1.73;;;0.52;;
22924;SDS011;11628;51.072;3.712;2023-02-26T12:45:18;1.58;;;0.60;;
22924;SDS011;11628;51.072;3.712;2023-02-26T13:10:35;2.78;;;0.77;;
22924;SDS011;11628;51.072;3.712;2023-02-26T13:16:04;4.72;;;1.08;;
22924;SDS011;11628;51.072;3.712;2023-02-26T13:19:02;3.58;;;1.08;;
22924;SDS011;11628;51.072;3.712;2023-02-26T13:21:48;3.70;;;0.75;;
22924;SDS011;11628;51.072;3.712;2023-02-26T13:24:29;1.67;;;0.70;;
22924;SDS011;11628;51.072;3.712;2023-02-26T13:29:34;1.70;;;0.65;;
22924;SDS011;11628;51.072;3.712;2023-02-26T13:32:06;2.70;;;0.80;;
22924;SDS011;11628;51.072;3.712;2023-02-26T13:34:56;3.55;;;0.77;;
22924;SDS011;11628;51.072;3.712;2023-02-26T13:37:25;1.42;;;0.70;;
22924;SDS011;11628;51.072;3.712;2023-02-26T13:42:50;2.97;;;1.17;;
22924;SDS011;11628;51.072;3.712;2023-02-26T13:51:01;3.38;;;1.00;;
22924;SDS011;11628;51.072;3.712;2023-02-26T13:53:46;1.58;;;1.00;;
22924;SDS011;11628;51.072;3.712;2023-02-26T14:04:28;2.63;;;0.82;;
22924;SDS011;11628;51.072;3.712;2023-02-26T14:07:09;2.08;;;0.70;;
22924;SDS011;11628;51.072;3.712;2023-02-26T14:12:40;2.05;;;0.77;;
22924;SDS011;11628;51.072;3.712;2023-02-26T14:17:41;3.75;;;0.80;;
22924;SDS011;11628;51.072;3.712;2023-02-26T14:22:52;1.98;;;1.20;;
22924;SDS011;11628;51.072;3.712;2023-02-26T14:25:54;4.90;;;2.58;;
22924;SDS011;11628;51.072;3.712;2023-02-26T14:30:50;3.75;;;1.83;;
22924;SDS011;11628;51.072;3.712;2023-02-26T14:33:50;3.83;;;2.03;;
22924;SDS011;11628;51.072;3.712;2023-02-26T14:36:45;3.47;;;0.70;;
22924;SDS011;11628;51.072;3.712;2023-02-26T14:39:22;2.13;;;0.82;;
22924;SDS011;11628;51.072;3.712;2023-02-26T14:41:56;2.38;;;0.77;;
22924;SDS011;11628;51.072;3.712;2023-02-26T14:44:27;2.53;;;0.63;;
22924;SDS011;11628;51.072;3.712;2023-02-26T14:46:55;2.88;;;0.80;;
22924;SDS011;11628;51.072;3.712;2023-02-26T14:49:28;2.47;;;0.65;;
22924;SDS011;11628;51.072;3.712;2023-02-26T15:24:04;4.50;;;0.90;;
22924;SDS011;11628;51.072;3.712;2023-02-26T15:26:32;3.50;;;1.10;;
22924;SDS011;11628;51.072;3.712;2023-02-26T15:29:03;4.55;;;1.20;;
22924;SDS011;11628;51.072;3.712;2023-02-26T15:31:35;6.25;;;2.25;;
22924;SDS011;11628;51.072;3.712;2023-02-26T15:34:04;5.57;;;2.42;;
22924;SDS011;11628;51.072;3.712;2023-02-26T15:36:31;4.75;;;1.77;;
22924;SDS011;11628;51.072;3.712;2023-02-26T15:38:59;4.15;;;2.03;;
22924;SDS011;11628;51.072;3.712;2023-02-26T15:41:28;4.53;;;2.10;;
22924;SDS011;11628;51.072;3.712;2023-02-26T15:43:57;5.03;;;1.70;;
22924;SDS011;11628;51.072;3.712;2023-02-26T15:46:39;4.00;;;0.98;;
22924;SDS011;11628;51.072;3.712;2023-02-26T15:52:02;9.38;;;1.90;;
22924;SDS011;11628;51.072;3.712;2023-02-26T15:54:35;9.00;;;2.38;;
22924;SDS011;11628;51.072;3.712;2023-02-26T15:57:09;5.65;;;1.63;;
22924;SDS011;11628;51.072;3.712;2023-02-26T15:59:39;4.07;;;1.40;;
22924;SDS011;11628;51.072;3.712;2023-02-26T16:02:19;3.72;;;1.40;;
22924;SDS011;11628;51.072;3.712;2023-02-26T16:04:51;3.05;;;1.00;;
22924;SDS011;11628;51.072;3.712;2023-02-26T16:07:17;2.97;;;0.90;;
22924;SDS011;11628;51.072;3.712;2023-02-26T16:09:51;4.63;;;1.00;;
22924;SDS011;11628;51.072;3.712;2023-02-26T16:12:21;4.53;;;1.50;;
22924;SDS011;11628;51.072;3.712;2023-02-26T16:15:02;3.22;;;1.10;;
22924;SDS011;11628;51.072;3.712;2023-02-26T16:17:33;4.45;;;1.02;;
22924;SDS011;11628;51.072;3.712;2023-02-26T16:20:04;2.78;;;1.08;;
22924;SDS011;11628;51.072;3.712;2023-02-26T16:22:38;5.65;;;2.33;;
22924;SDS011;11628;51.072;3.712;2023-02-26T16:27:46;8.60;;;2.88;;
22924;SDS011;11628;51.072;3.712;2023-02-26T16:30:22;5.43;;;2.33;;
22924;SDS011;11628;51.072;3.712;2023-02-26T16:32:51;3.90;;;1.70;;
22924;SDS011;11628;51.072;3.712;2023-02-26T16:35:20;4.70;;;1.42;;
22924;SDS011;11628;51.072;3.712;2023-02-26T16:37:50;4.30;;;1.23;;
22924;SDS011;11628;51.072;3.712;2023-02-26T16:48:26;4.60;;;1.35;;
22924;SDS011;11628;51.072;3.712;2023-02-26T16:50:59;4.65;;;1.20;;
22924;SDS011;11628;51.072;3.712;2023-02-26T16:53:34;3.30;;;0.93;;
22924;SDS011;11628;51.072;3.712;2023-02-26T16:56:02;5.20;;;1.15;;
22924;SDS011;11628;51.072;3.712;2023-02-26T16:58:29;5.88;;;2.13;;
22924;SDS011;11628;51.072;3.712;2023-02-26T17:01:03;4.78;;;1.30;;
22924;SDS011;11628;51.072;3.712;2023-02-26T17:03:36;4.82;;;1.35;;
22924;SDS011;11628;51.072;3.712;2023-02-26T17:06:08;2.72;;;1.20;;
22924;SDS011;11628;51.072;3.712;2023-02-26T17:11:25;3.95;;;1.40;;
22924;SDS011;11628;51.072;3.712;2023-02-26T17:14:12;5.53;;;1.25;;
22924;SDS011;11628;51.072;3.712;2023-02-26T17:17:02;3.55;;;1.10;;
22924;SDS011;11628;51.072;3.712;2023-02-26T17:19:28;6.63;;;1.27;;
22924;SDS011;11628;51.072;3.712;2023-02-26T17:21:56;3.67;;;1.02;;
22924;SDS011;11628;51.072;3.712;2023-02-26T17:24:25;5.40;;;1.50;;
22924;SDS011;11628;51.072;3.712;2023-02-26T17:26:55;5.32;;;1.10;;
22924;SDS011;11628;51.072;3.712;2023-02-26T17:29:44;3.83;;;1.05;;
22924;SDS011;11628;51.072;3.712;2023-02-26T17:32:19;6.20;;;1.80;;
22924;SDS011;11628;51.072;3.712;2023-02-26T17:34:48;4.90;;;1.42;;
22924;SDS011;11628;51.072;3.712;2023-02-26T17:37:15;2.92;;;1.63;;
22924;SDS011;11628;51.072;3.712;2023-02-26T17:39:41;5.55;;;2.70;;
22924;SDS011;11628;51.072;3.712;2023-02-26T17:42:15;4.43;;;1.73;;
22924;SDS011;11628;51.072;3.712;2023-02-26T17:44:43;4.82;;;2.15;;
22924;SDS011;11628;51.072;3.712;2023-02-26T17:47:19;7.68;;;2.33;;
22924;SDS011;11628;51.072;3.712;2023-02-26T17:49:47;5.60;;;2.30;;
22924;SDS011;11628;51.072;3.712;2023-02-26T17:52:14;9.50;;;2.70;;
22924;SDS011;11628;51.072;3.712;2023-02-26T17:54:40;6.05;;;3.00;;
22924;SDS011;11628;51.072;3.712;2023-02-26T17:57:06;10.98;;;2.80;;
22924;SDS011;11628;51.072;3.712;2023-02-26T17:59:39;7.55;;;3.17;;
22924;SDS011;11628;51.072;3.712;2023-02-26T18:02:20;12.32;;;8.45;;
22924;SDS011;11628;51.072;3.712;2023-02-26T18:04:49;7.45;;;3.20;;
22924;SDS011;11628;51.072;3.712;2023-02-26T18:07:16;11.02;;;3.90;;
22924;SDS011;11628;51.072;3.712;2023-02-26T18:09:44;9.88;;;3.63;;
22924;SDS011;11628;51.072;3.712;2023-02-26T18:12:15;7.93;;;3.78;;
22924;SDS011;11628;51.072;3.712;2023-02-26T18:14:45;11.75;;;4.68;;
22924;SDS011;11628;51.072;3.712;2023-02-26T18:17:17;10.43;;;3.38;;
22924;SDS011;11628;51.072;3.712;2023-02-26T18:19:46;7.15;;;2.50;;
22924;SDS011;11628;51.072;3.712;2023-02-26T18:22:16;4.45;;;2.53;;
22924;SDS011;11628;51.072;3.712;2023-02-26T18:24:43;7.68;;;2.05;;
22924;SDS011;11628;51.072;3.712;2023-02-26T18:27:16;9.02;;;2.50;;
22924;SDS011;11628;51.072;3.712;2023-02-26T18:29:44;8.88;;;2.10;;
22924;SDS011;11628;51.072;3.712;2023-02-26T18:32:13;5.78;;;1.60;;